Overview Statistics Trail Chart Weather Telemetry Raw packets
 

This is the latest recevied weather packets stored in our database for station/object IT9DBI-3. If no packets are shown the sender has not sent any weather packets the latest 10 day(s).

<< 22 23 24 25 26 27 28 >>
Time Temp. Humidity Pressure Rain* Wind** Luminosity Snow
1787894724 31.67° C 31% 1015.7 hPa - - - -
1787893523 31.67° C 29% 1015.7 hPa - - - -
1787892318 32.22° C 25% 1015.5 hPa - - - -
1787891117 31.11° C 27% 1015.4 hPa - - - -
1787889916 30° C 28% 1015.2 hPa - - - -
1787888714 31.11° C 28% 1015.1 hPa - - - -
1787887513 30° C 29% 1015.2 hPa - - - -
1787886311 30.56° C 30% 1015.3 hPa - - - -
1787885110 31.11° C 29% 1015.4 hPa - - - -
1787883909 30.56° C 32% 1015.6 hPa - - - -
1787882707 30.56° C 33% 1015.8 hPa - - - -
1787881506 30.56° C 34% 1016.1 hPa - - - -
1787880305 30° C 37% 1016.3 hPa - - - -
1787879104 30° C 39% 1016.4 hPa - - - -
1787877902 30° C 38% 1016.6 hPa - - - -
1787876701 30° C 38% 1016.7 hPa - - - -
1787875500 30° C 37% 1016.7 hPa - - - -
1787874298 30° C 40% 1016.8 hPa - - - -
1787873097 30° C 41% 1017 hPa - - - -
1787871895 31.11° C 40% 1017.1 hPa - - - -
1787870693 29.44° C 43% 1017.2 hPa - - - -
1787869492 29.44° C 47% 1017.5 hPa - - - -
1787868291 30° C 48% 1017.7 hPa - - - -
1787867089 30.56° C 48% 1017.5 hPa - - - -
1787865888 30.56° C 47% 1017.3 hPa - - - -

* Rain since midnight (hover to see other rain measurements)
** Current wind speed in m/s (hover to see current wind gust speed)